Time;durP1;ratioP1;P1;durP2;ratioP2;P2;SDS_P1;SDS_P2;PMS_P1;PMS_P2;Temp;Humidity;BMP_temperature;BMP_pressure;BME280_temperature;BME280_humidity;BME280_pressure;Samples;Min_cycle;Max_cycle;Signal;HPM_P1;HPM_P2
2023/10/14 00:01:13;;;;;;;15.10;2.90;;;13.30;88.90;;;;;;5018823;28;20437;-90
2023/10/14 00:03:45;;;;;;;11.10;1.90;;;13.30;88.50;;;;;;5003468;28;20509;-90
2023/10/14 00:06:17;;;;;;;13.43;2.28;;;13.20;88.20;;;;;;5019005;28;20037;-89
2023/10/14 00:08:57;;;;;;;16.92;2.95;;;13.20;88.10;;;;;;5018889;28;20052;-88
2023/10/14 00:11:35;;;;;;;13.32;2.65;;;13.10;88.10;;;;;;5003263;28;20041;-88
2023/10/14 00:14:15;;;;;;;12.32;3.47;;;13.10;88.20;;;;;;4998011;28;20058;-89
2023/10/14 00:16:51;;;;;;;10.73;2.60;;;13.00;88.10;;;;;;5000182;28;20038;-89
2023/10/14 00:19:18;;;;;;;11.32;2.90;;;13.00;87.90;;;;;;4986281;28;20136;-89
2023/10/14 00:21:45;;;;;;;13.55;2.58;;;13.00;87.60;;;;;;5003532;28;20041;-89
2023/10/14 00:24:16;;;;;;;12.02;2.67;;;13.00;86.80;;;;;;4987119;28;20490;-91
2023/10/14 00:26:47;;;;;;;9.02;2.60;;;13.00;86.00;;;;;;5004137;28;20046;-87
2023/10/14 00:31:42;;;;;;;8.90;1.70;;;13.00;85.30;;;;;;5022728;28;20084;-89
2023/10/14 00:34:08;;;;;;;9.98;3.03;;;12.90;85.50;;;;;;5020645;28;20118;-88
2023/10/14 00:36:34;;;;;;;13.15;3.38;;;12.80;85.30;;;;;;5018027;28;20049;-89
2023/10/14 00:39:12;;;;;;;12.10;2.72;;;12.80;84.70;;;;;;5001462;28;20025;-88
2023/10/14 00:41:50;;;;;;;9.75;2.42;;;12.80;84.70;;;;;;5017076;28;20045;-87
2023/10/14 00:44:17;;;;;;;7.45;1.55;;;12.70;84.60;;;;;;5017397;28;20060;-87
2023/10/14 00:46:50;;;;;;;8.98;2.25;;;12.60;83.90;;;;;;5017334;28;20041;-87
2023/10/14 00:49:31;;;;;;;7.38;1.88;;;12.60;84.80;;;;;;5018310;28;20044;-89
2023/10/14 00:51:59;;;;;;;11.13;2.45;;;12.60;84.90;;;;;;5017493;28;20092;-86
2023/10/14 00:54:58;;;;;;;9.50;2.00;;;12.50;84.70;;;;;;5017391;28;20425;-89
2023/10/14 00:59:41;;;;;;;12.55;2.60;;;12.50;84.90;;;;;;5018915;28;20516;-89
2023/10/14 01:02:10;;;;;;;7.82;2.70;;;12.50;84.40;;;;;;5008042;28;20045;-89
2023/10/14 01:04:36;;;;;;;10.80;2.30;;;12.50;84.50;;;;;;5008919;28;20046;-90
2023/10/14 01:07:04;;;;;;;9.98;2.10;;;12.50;84.40;;;;;;5024001;28;20053;-89
2023/10/14 01:09:49;;;;;;;13.45;2.53;;;12.50;84.90;;;;;;5013364;28;20105;-86
2023/10/14 01:12:16;;;;;;;9.73;2.10;;;12.50;83.90;;;;;;5026201;28;20049;-87
2023/10/14 01:14:52;;;;;;;5.47;1.95;;;12.50;84.20;;;;;;5007336;28;20486;-89
2023/10/14 01:17:31;;;;;;;9.50;2.00;;;12.50;84.20;;;;;;4984058;28;20041;-89
2023/10/14 01:19:59;;;;;;;10.95;2.45;;;12.60;84.70;;;;;;5000320;28;20041;-88
2023/10/14 01:22:29;;;;;;;14.65;2.45;;;12.80;84.50;;;;;;4983919;28;20502;-86
2023/10/14 01:24:55;;;;;;;8.45;2.10;;;12.80;84.40;;;;;;4984703;28;20375;-87
2023/10/14 01:27:33;;;;;;;13.18;2.28;;;12.90;84.70;;;;;;4967870;28;20049;-88
2023/10/14 01:29:59;;;;;;;16.67;3.17;;;12.80;84.70;;;;;;4999348;28;20366;-89
2023/10/14 01:35:12;;;;;;;13.68;2.47;;;12.70;85.00;;;;;;5000908;28;20056;-87
2023/10/14 01:37:44;;;;;;;11.20;2.00;;;12.70;85.00;;;;;;4985314;28;20041;-89
2023/10/14 01:40:24;;;;;;;12.93;2.42;;;12.60;84.80;;;;;;4999699;28;20042;-88
2023/10/14 01:43:08;;;;;;;11.48;2.15;;;12.60;84.50;;;;;;5016552;28;20398;-86
2023/10/14 01:45:59;;;;;;;8.80;2.67;;;12.50;84.80;;;;;;4984997;28;20041;-89
2023/10/14 01:48:31;;;;;;;12.07;2.67;;;12.40;84.30;;;;;;4998945;28;20303;-88
2023/10/14 01:50:57;;;;;;;12.07;2.08;;;12.40;84.70;;;;;;4984784;28;20067;-86
2023/10/14 01:53:26;;;;;;;10.18;2.15;;;12.50;84.90;;;;;;5015920;28;20112;-87
2023/10/14 01:55:54;;;;;;;9.20;2.22;;;12.50;84.90;;;;;;4999755;28;20049;-88
2023/10/14 01:58:22;;;;;;;14.32;2.80;;;12.50;85.20;;;;;;4978245;28;20482;-88
2023/10/14 02:00:53;;;;;;;9.70;2.78;;;12.60;85.20;;;;;;4968423;28;20425;-88
2023/10/14 02:03:23;;;;;;;10.50;2.33;;;12.70;84.50;;;;;;5019422;28;20065;-87
2023/10/14 02:05:52;;;;;;;7.60;1.98;;;12.70;84.70;;;;;;4989750;28;20061;-88
2023/10/14 02:08:21;;;;;;;11.18;2.47;;;12.70;84.50;;;;;;5002598;28;20147;-86
2023/10/14 02:10:53;;;;;;;10.20;2.17;;;12.70;84.60;;;;;;4987008;28;20133;-86
2023/10/14 02:13:23;;;;;;;11.77;1.75;;;12.60;85.10;;;;;;5015601;28;20060;-88
2023/10/14 02:15:52;;;;;;;10.77;2.22;;;12.50;85.20;;;;;;5028084;28;20056;-87
2023/10/14 02:18:22;;;;;;;11.95;2.47;;;12.50;85.60;;;;;;5007313;28;20037;-87
2023/10/14 02:21:04;;;;;;;9.75;2.35;;;12.40;85.60;;;;;;5018936;28;20036;-87
2023/10/14 02:23:47;;;;;;;14.57;2.70;;;12.40;85.10;;;;;;5020902;28;20119;-88
2023/10/14 02:26:22;;;;;;;11.82;2.88;;;12.40;85.30;;;;;;5023130;28;20037;-86
2023/10/14 02:28:51;;;;;;;10.70;2.45;;;12.30;85.40;;;;;;5027019;28;20473;-86
2023/10/14 02:31:18;;;;;;;12.57;2.70;;;12.30;85.30;;;;;;5023817;28;20041;-90
2023/10/14 02:33:47;;;;;;;9.10;2.45;;;12.30;85.10;;;;;;5025047;28;20048;-86
2023/10/14 02:36:17;;;;;;;7.47;1.55;;;12.20;85.00;;;;;;5040909;28;20052;-87
2023/10/14 02:38:54;;;;;;;9.10;1.83;;;12.20;84.60;;;;;;5024955;28;20044;-87
2023/10/14 02:41:31;;;;;;;7.95;1.90;;;12.20;84.80;;;;;;5020923;28;20041;-87
2023/10/14 02:44:20;;;;;;;12.95;1.90;;;12.20;84.40;;;;;;5018577;28;20078;-88
2023/10/14 02:46:46;;;;;;;13.32;2.33;;;12.20;84.30;;;;;;5021500;28;20481;-86
2023/10/14 02:49:18;;;;;;;11.25;2.45;;;12.10;84.10;;;;;;5018220;28;20163;-88
2023/10/14 02:51:45;;;;;;;9.55;2.28;;;12.10;84.30;;;;;;5035086;28;20564;-89
2023/10/14 02:54:15;;;;;;;11.32;3.03;;;12.10;84.30;;;;;;5018903;28;20067;-87
2023/10/14 02:59:21;;;;;;;9.73;2.08;;;12.00;84.40;;;;;;5018572;28;20128;-86
2023/10/14 03:04:39;;;;;;;;;;;12.00;83.60;;;;;;5023635;28;20052;-88
2023/10/14 03:07:07;;;;;;;8.05;1.88;;;12.00;83.90;;;;;;5022552;28;20327;-87
2023/10/14 03:09:34;;;;;;;8.18;2.47;;;12.00;84.20;;;;;;5022696;28;20045;-89
2023/10/14 03:12:01;;;;;;;8.65;1.67;;;12.00;83.60;;;;;;5005962;28;20041;-90
2023/10/14 03:14:30;;;;;;;10.02;2.15;;;12.00;83.60;;;;;;5021966;28;20060;-88
2023/10/14 03:16:55;;;;;;;13.23;2.22;;;12.00;83.40;;;;;;5021537;28;20647;-86
2023/10/14 03:19:25;;;;;;;11.00;2.30;;;12.00;83.40;;;;;;5005619;28;20045;-87
2023/10/14 03:21:58;;;;;;;12.25;3.20;;;12.00;83.20;;;;;;5021772;28;20041;-88
2023/10/14 03:24:30;;;;;;;9.00;2.67;;;12.00;83.40;;;;;;5023220;28;20048;-88
2023/10/14 03:27:07;;;;;;;15.70;2.15;;;12.00;83.10;;;;;;5005934;28;20132;-90
2023/10/14 03:29:32;;;;;;;14.23;2.90;;;12.00;83.40;;;;;;5008336;28;20037;-89
2023/10/14 03:31:58;;;;;;;11.80;2.05;;;12.00;83.20;;;;;;5022236;28;20389;-88
2023/10/14 03:34:30;;;;;;;9.38;2.15;;;12.00;83.30;;;;;;5022363;28;20040;-88
2023/10/14 03:37:20;;;;;;;10.68;1.90;;;12.00;82.70;;;;;;5006316;28;20048;-83
2023/10/14 03:39:51;;;;;;;10.02;1.73;;;11.90;82.70;;;;;;5021960;28;20547;-88
2023/10/14 03:42:22;;;;;;;7.95;1.75;;;12.00;82.50;;;;;;5006040;28;20037;-87
2023/10/14 03:44:47;;;;;;;7.68;1.55;;;11.90;82.50;;;;;;5005745;28;20511;-85
2023/10/14 03:47:16;;;;;;;5.55;1.85;;;11.90;82.40;;;;;;5005118;28;20040;-88
2023/10/14 03:49:45;;;;;;;11.10;2.15;;;11.90;82.50;;;;;;5021111;28;20112;-87
2023/10/14 03:52:12;;;;;;;10.95;1.70;;;12.00;82.20;;;;;;5005380;28;20052;-88
2023/10/14 03:54:45;;;;;;;9.95;2.15;;;11.90;81.90;;;;;;5004936;28;20040;-87
2023/10/14 03:57:14;;;;;;;13.95;2.67;;;11.90;81.80;;;;;;5022495;28;20045;-87
2023/10/14 03:59:42;;;;;;;14.43;2.97;;;11.90;82.10;;;;;;5034795;28;20037;-87
2023/10/14 04:02:08;;;;;;;9.73;1.98;;;11.90;82.60;;;;;;5005210;28;20060;-85
2023/10/14 04:04:34;;;;;;;10.25;2.13;;;11.90;82.30;;;;;;5004663;28;20041;-86
2023/10/14 04:09:44;;;;;;;12.98;2.15;;;12.00;82.70;;;;;;5037510;28;20091;-87
2023/10/14 04:17:55;;;;;;;9.15;2.22;;;12.10;82.40;;;;;;4990142;28;20121;-86
2023/10/14 04:20:32;;;;;;;12.27;2.85;;;12.10;82.70;;;;;;4970035;28;20045;-88
2023/10/14 04:23:05;;;;;;;10.60;3.22;;;12.10;82.30;;;;;;4986465;28;20077;-88
2023/10/14 04:25:42;;;;;;;13.50;2.75;;;12.00;82.30;;;;;;5006651;28;20053;-86
2023/10/14 04:30:44;;;;;;;13.45;2.10;;;12.00;81.60;;;;;;5016300;28;20099;-88
2023/10/14 04:36:08;;;;;;;15.65;2.65;;;11.90;81.10;;;;;;5005204;28;20071;-88
2023/10/14 04:38:42;;;;;;;13.20;2.17;;;11.80;80.30;;;;;;5004609;28;20041;-89
2023/10/14 04:41:14;;;;;;;10.57;2.72;;;11.80;80.70;;;;;;5017662;28;20111;-88
2023/10/14 04:44:00;;;;;;;11.90;2.42;;;11.80;80.70;;;;;;4969861;28;20052;-86
2023/10/14 04:46:33;;;;;;;12.00;2.60;;;11.80;80.80;;;;;;5000835;28;20502;-87
2023/10/14 04:48:59;;;;;;;9.23;2.13;;;11.70;81.00;;;;;;5000626;28;20547;-85
2023/10/14 04:51:36;;;;;;;9.80;2.70;;;11.70;81.30;;;;;;5000790;28;20061;-85
2023/10/14 04:54:02;;;;;;;11.35;2.72;;;11.70;81.30;;;;;;4985304;28;20120;-87
2023/10/14 04:56:30;;;;;;;11.93;3.00;;;11.60;81.20;;;;;;5000464;28;20124;-86
2023/10/14 04:58:57;;;;;;;11.27;2.20;;;11.60;80.80;;;;;;5000448;28;20077;-86
2023/10/14 05:01:24;;;;;;;13.02;3.05;;;11.60;80.90;;;;;;4998628;28;20448;-84
2023/10/14 05:03:57;;;;;;;11.10;2.35;;;11.50;80.40;;;;;;5016806;28;20068;-87
2023/10/14 05:06:29;;;;;;;9.13;2.40;;;11.60;80.80;;;;;;4985634;28;20037;-88
2023/10/14 05:08:55;;;;;;;13.15;2.40;;;11.60;80.90;;;;;;5000442;28;20394;-85
2023/10/14 05:11:25;;;;;;;10.35;2.28;;;11.60;80.00;;;;;;5016664;28;20136;-87
2023/10/14 05:14:14;;;;;;;13.82;2.72;;;11.60;80.60;;;;;;5014130;28;20052;-87
2023/10/14 05:16:55;;;;;;;14.02;2.85;;;11.60;80.40;;;;;;5019829;28;20040;-85
2023/10/14 05:19:24;;;;;;;17.15;2.80;;;11.60;80.80;;;;;;5019010;28;20041;-87
2023/10/14 05:21:58;;;;;;;15.52;2.88;;;11.70;81.20;;;;;;5003590;28;20485;-87
2023/10/14 05:24:28;;;;;;;8.52;2.30;;;11.70;81.30;;;;;;5036173;28;20037;-87
2023/10/14 05:27:01;;;;;;;13.27;2.33;;;11.70;81.10;;;;;;5019625;28;20075;-84
2023/10/14 05:29:28;;;;;;;12.13;2.28;;;11.70;81.30;;;;;;5004171;28;20102;-87
2023/10/14 05:32:10;;;;;;;9.73;2.40;;;11.70;81.10;;;;;;5019473;28;20529;-85
2023/10/14 05:34:39;;;;;;;11.90;2.40;;;11.70;81.20;;;;;;5019225;28;20049;-86
2023/10/14 05:37:09;;;;;;;11.60;2.88;;;11.70;81.50;;;;;;5019525;28;20037;-87
2023/10/14 05:39:37;;;;;;;14.00;3.38;;;11.70;81.30;;;;;;5019763;28;20040;-86
2023/10/14 05:42:13;;;;;;;13.57;2.80;;;11.70;80.90;;;;;;5003754;28;20080;-86
2023/10/14 05:44:46;;;;;;;13.10;2.50;;;11.70;80.50;;;;;;5019343;28;20461;-87
2023/10/14 05:47:13;;;;;;;16.08;3.42;;;11.60;81.10;;;;;;4989939;28;20072;-87
2023/10/14 05:49:38;;;;;;;15.35;3.47;;;11.60;81.10;;;;;;5004980;28;20055;-87
2023/10/14 05:52:04;;;;;;;10.73;2.75;;;11.60;80.90;;;;;;5004920;28;20124;-86
2023/10/14 05:54:30;;;;;;;13.75;2.63;;;11.60;81.10;;;;;;5005888;28;20048;-85
2023/10/14 05:56:56;;;;;;;10.63;2.70;;;11.60;80.60;;;;;;5002439;28;20041;-85
2023/10/14 05:59:21;;;;;;;14.38;2.38;;;11.60;80.50;;;;;;5002428;28;20170;-85
2023/10/14 06:01:48;;;;;;;12.10;2.85;;;11.50;80.90;;;;;;4995955;28;20082;-86
2023/10/14 06:04:14;;;;;;;13.07;2.50;;;11.60;80.70;;;;;;4983595;28;20506;-84
2023/10/14 06:06:41;;;;;;;9.45;2.42;;;11.60;80.80;;;;;;4983125;28;20130;-83
2023/10/14 06:09:10;;;;;;;11.07;2.58;;;11.60;81.10;;;;;;5015929;28;20135;-88
2023/10/14 06:11:36;;;;;;;11.25;3.67;;;11.60;81.00;;;;;;4983005;28;20124;-84
2023/10/14 06:14:03;;;;;;;11.07;2.78;;;11.60;81.10;;;;;;5015327;28;20062;-85
2023/10/14 06:16:31;;;;;;;11.57;2.92;;;11.50;81.60;;;;;;4982821;28;20136;-85
2023/10/14 06:18:57;;;;;;;17.63;2.88;;;11.60;81.60;;;;;;5028796;28;20484;-83
2023/10/14 06:21:27;;;;;;;17.15;3.33;;;11.60;81.50;;;;;;5018870;28;20041;-87
2023/10/14 06:23:56;;;;;;;10.52;3.28;;;11.50;81.50;;;;;;5018784;28;20179;-85
2023/10/14 06:26:22;;;;;;;8.48;2.25;;;11.50;81.70;;;;;;5002372;28;20072;-86
2023/10/14 06:28:49;;;;;;;10.05;2.30;;;11.50;81.70;;;;;;5018699;28;20048;-84
2023/10/14 06:31:18;;;;;;;13.35;3.40;;;11.50;81.90;;;;;;5018721;28;20040;-84
2023/10/14 06:33:45;;;;;;;9.63;1.92;;;11.60;81.60;;;;;;5018569;28;20036;-86
2023/10/14 06:36:14;;;;;;;10.88;2.38;;;11.50;81.50;;;;;;5012446;28;20041;-84
2023/10/14 06:38:46;;;;;;;12.80;3.28;;;11.50;81.60;;;;;;4984584;28;20385;-86
2023/10/14 06:41:16;;;;;;;13.35;2.97;;;11.50;81.10;;;;;;4987040;28;20037;-83
2023/10/14 06:43:43;;;;;;;16.08;3.17;;;11.60;80.60;;;;;;5019158;28;20048;-85
2023/10/14 06:46:11;;;;;;;11.30;2.22;;;11.60;80.60;;;;;;5002979;28;20049;-85
2023/10/14 06:48:40;;;;;;;10.85;2.30;;;11.60;80.40;;;;;;5019372;28;20111;-84
2023/10/14 06:51:09;;;;;;;13.65;3.35;;;11.60;80.30;;;;;;5009117;28;20051;-86
2023/10/14 06:53:35;;;;;;;10.70;2.67;;;11.60;80.40;;;;;;5006983;28;20560;-83
2023/10/14 06:56:01;;;;;;;12.23;2.40;;;11.70;80.50;;;;;;4988980;28;20152;-81
2023/10/14 06:58:28;;;;;;;12.20;2.45;;;11.80;80.20;;;;;;5020605;28;20045;-84
2023/10/14 07:00:59;;;;;;;14.90;3.70;;;11.80;79.80;;;;;;5020324;28;20041;-84
2023/10/14 07:03:24;;;;;;;10.20;2.20;;;11.90;79.00;;;;;;5035291;28;20449;-83
2023/10/14 07:08:21;;;;;;;7.55;1.85;;;12.00;78.20;;;;;;5049528;28;20044;-83
2023/10/14 07:10:50;;;;;;;8.80;2.03;;;12.00;78.00;;;;;;5046842;28;20025;-81
2023/10/14 07:13:17;;;;;;;14.98;3.28;;;12.00;78.00;;;;;;5047171;28;20087;-88
2023/10/14 07:15:44;;;;;;;8.18;2.17;;;12.00;77.80;;;;;;5061827;28;20025;-82
2023/10/14 07:18:13;;;;;;;8.80;2.38;;;12.00;77.70;;;;;;5046702;28;20087;-82
2023/10/14 07:20:39;;;;;;;13.80;2.78;;;12.10;77.40;;;;;;5044870;28;20083;-84
2023/10/14 07:23:08;;;;;;;11.45;2.25;;;12.20;76.60;;;;;;5044642;28;20091;-82
2023/10/14 07:25:42;;;;;;;13.73;2.25;;;12.20;77.30;;;;;;5061800;28;20092;-83
2023/10/14 07:28:14;;;;;;;8.37;2.23;;;12.20;76.20;;;;;;5060894;28;20029;-83
2023/10/14 07:30:48;;;;;;;14.95;2.53;;;12.30;77.20;;;;;;5037631;28;20041;-80
2023/10/14 07:33:14;;;;;;;11.83;2.13;;;12.30;76.60;;;;;;5026207;28;20396;-80
2023/10/14 07:35:41;;;;;;;7.30;1.73;;;12.40;75.60;;;;;;5021600;28;20303;-80
2023/10/14 07:38:07;;;;;;;9.25;1.83;;;12.50;76.00;;;;;;5021993;28;20441;-84
2023/10/14 07:40:34;;;;;;;11.40;2.17;;;12.50;76.00;;;;;;5006814;28;20125;-81
2023/10/14 07:43:10;;;;;;;7.22;1.70;;;12.50;76.40;;;;;;5006878;28;20045;-86
2023/10/14 07:45:42;;;;;;;7.50;1.70;;;12.50;76.60;;;;;;5004541;28;20037;-83
2023/10/14 07:48:09;;;;;;;7.18;1.63;;;12.60;76.60;;;;;;5005248;28;20071;-81
2023/10/14 07:50:42;;;;;;;8.30;2.08;;;12.60;76.40;;;;;;5005784;28;20030;-83
2023/10/14 07:53:12;;;;;;;9.63;1.80;;;12.60;76.80;;;;;;5002266;28;20056;-81
2023/10/14 07:55:38;;;;;;;8.75;2.15;;;12.70;76.80;;;;;;4986368;28;20415;-81
2023/10/14 07:58:08;;;;;;;11.10;1.88;;;12.70;76.90;;;;;;5001844;28;20525;-82
2023/10/14 08:00:39;;;;;;;10.45;1.90;;;12.80;76.40;;;;;;4993779;28;20029;-80
2023/10/14 08:03:14;;;;;;;7.93;2.00;;;12.80;76.10;;;;;;5012655;28;20030;-82
2023/10/14 08:05:41;;;;;;;8.82;1.88;;;13.00;75.50;;;;;;5001655;28;20072;-82
2023/10/14 08:08:09;;;;;;;10.95;2.20;;;13.00;74.60;;;;;;5001382;28;20050;-81
2023/10/14 08:10:43;;;;;;;8.30;2.03;;;13.10;75.00;;;;;;5001221;28;20045;-82
2023/10/14 08:13:21;;;;;;;10.20;1.57;;;13.20;75.00;;;;;;5017253;28;20061;-84
2023/10/14 08:15:51;;;;;;;8.98;1.90;;;13.20;75.00;;;;;;5001175;28;20736;-82
2023/10/14 08:18:19;;;;;;;7.75;1.60;;;13.20;74.70;;;;;;5017367;28;20401;-82
2023/10/14 08:20:45;;;;;;;7.72;1.67;;;13.20;74.70;;;;;;5034880;28;20448;-82
2023/10/14 08:23:12;;;;;;;12.73;2.47;;;13.20;74.70;;;;;;5020935;28;20084;-83
2023/10/14 08:25:42;;;;;;;7.13;2.20;;;13.00;75.10;;;;;;5020674;28;20119;-83
2023/10/14 08:28:08;;;;;;;10.20;2.17;;;13.00;75.70;;;;;;5017420;28;20051;-83
2023/10/14 08:30:45;;;;;;;5.32;1.70;;;13.00;75.70;;;;;;5014799;28;20045;-84
2023/10/14 08:33:16;;;;;;;9.05;1.75;;;13.00;75.50;;;;;;5020420;28;20040;-84
2023/10/14 08:35:42;;;;;;;11.13;2.22;;;13.00;75.30;;;;;;5019557;28;20216;-83
2023/10/14 08:38:19;;;;;;;7.05;1.70;;;13.00;75.30;;;;;;5004728;28;20048;-84
2023/10/14 08:40:46;;;;;;;8.57;2.17;;;13.10;74.40;;;;;;5037104;28;20086;-84
2023/10/14 08:43:18;;;;;;;10.52;3.00;;;13.20;74.70;;;;;;5020206;28;20039;-84
2023/10/14 08:45:50;;;;;;;10.27;2.15;;;13.20;75.20;;;;;;5036652;28;20485;-85
2023/10/14 08:48:18;;;;;;;11.15;2.65;;;13.40;75.10;;;;;;5020134;28;20075;-84
2023/10/14 08:50:47;;;;;;;12.75;2.28;;;13.50;74.70;;;;;;5020463;28;20045;-81
2023/10/14 08:53:13;;;;;;;12.63;2.45;;;13.60;74.00;;;;;;5019490;28;20037;-84
2023/10/14 08:55:40;;;;;;;13.27;2.63;;;13.60;73.50;;;;;;5003676;28;20051;-85
2023/10/14 08:58:07;;;;;;;7.38;2.13;;;13.70;73.30;;;;;;5003634;28;20049;-82
2023/10/14 09:00:37;;;;;;;7.82;2.28;;;13.70;72.30;;;;;;5022914;28;20041;-83
2023/10/14 09:03:09;;;;;;;13.48;2.75;;;13.70;71.90;;;;;;5005364;28;20389;-81
2023/10/14 09:05:39;;;;;;;11.05;2.83;;;13.70;71.70;;;;;;5033700;28;20099;-83
2023/10/14 09:08:07;;;;;;;8.20;2.30;;;13.70;71.50;;;;;;5019539;28;20067;-81
2023/10/14 09:10:36;;;;;;;6.70;2.10;;;13.70;69.80;;;;;;5036192;28;20072;-84
2023/10/14 09:13:05;;;;;;;11.25;2.67;;;13.70;70.50;;;;;;5019729;28;20068;-83
2023/10/14 09:15:38;;;;;;;9.10;1.92;;;13.80;69.70;;;;;;5019408;28;20076;-84
2023/10/14 09:18:13;;;;;;;10.75;2.70;;;14.00;69.50;;;;;;5035835;28;20041;-83
2023/10/14 09:20:40;;;;;;;6.78;2.20;;;14.00;69.50;;;;;;5019348;28;20139;-82
2023/10/14 09:23:19;;;;;;;14.00;2.33;;;14.20;70.50;;;;;;5018882;28;20033;-83
2023/10/14 09:25:53;;;;;;;12.00;2.85;;;14.50;70.50;;;;;;5035827;28;20053;-82
2023/10/14 09:28:21;;;;;;;9.65;1.70;;;14.60;68.80;;;;;;5035794;28;20132;-83
2023/10/14 09:30:51;;;;;;;6.30;1.00;;;14.50;69.90;;;;;;5018975;28;20488;-85
2023/10/14 09:33:27;;;;;;;6.35;1.48;;;13.80;70.50;;;;;;5035894;28;20056;-86
2023/10/14 09:35:55;;;;;;;4.32;1.00;;;13.40;71.70;;;;;;5019199;28;20041;-86
2023/10/14 09:38:22;;;;;;;5.30;1.20;;;13.10;71.30;;;;;;4998839;28;20501;-86
2023/10/14 09:40:57;;;;;;;6.82;1.77;;;13.00;72.30;;;;;;4999630;28;20124;-85
2023/10/14 09:43:27;;;;;;;11.82;1.50;;;13.00;73.60;;;;;;4984358;28;20042;-85
2023/10/14 09:45:57;;;;;;;6.15;1.33;;;13.10;74.00;;;;;;4999744;28;20041;-85
2023/10/14 09:48:31;;;;;;;4.57;1.40;;;13.20;74.50;;;;;;5000113;28;20037;-82
2023/10/14 09:51:00;;;;;;;;;;;13.30;74.20;;;;;;5000878;28;20068;-85
2023/10/14 09:53:34;;;;;;;5.30;1.95;;;13.30;74.20;;;;;;4983490;28;19970;-84
2023/10/14 09:56:11;;;;;;;7.50;1.92;;;13.40;73.80;;;;;;5033867;28;20041;-85
2023/10/14 09:58:43;;;;;;;7.70;1.67;;;13.30;73.40;;;;;;5004935;28;20044;-83
2023/10/14 10:01:17;;;;;;;8.30;1.50;;;13.40;73.30;;;;;;5023693;28;20087;-84
2023/10/14 10:04:10;;;;;;;9.57;1.50;;;13.50;73.30;;;;;;5026658;28;20041;-84
2023/10/14 10:06:54;;;;;;;8.60;2.00;;;13.70;72.60;;;;;;5023685;28;20044;-85
2023/10/14 10:09:41;;;;;;;10.35;2.00;;;13.80;72.60;;;;;;5020902;28;20041;-84
2023/10/14 10:12:10;;;;;;;7.57;1.98;;;14.00;71.50;;;;;;5019441;28;20044;-86
2023/10/14 10:14:45;;;;;;;7.95;2.38;;;14.20;71.50;;;;;;5018534;28;20048;-85
2023/10/14 10:17:12;;;;;;;11.63;2.15;;;14.30;70.50;;;;;;5018711;28;20037;-86
2023/10/14 10:20:10;;;;;;;9.70;2.22;;;14.50;70.50;;;;;;5024606;28;20120;-86
2023/10/14 10:22:50;;;;;;;6.82;1.70;;;14.50;69.90;;;;;;5026341;28;20481;-84
2023/10/14 10:25:17;;;;;;;9.93;2.33;;;14.60;70.60;;;;;;5006517;28;20087;-85
2023/10/14 10:27:47;;;;;;;8.00;1.88;;;14.70;70.50;;;;;;5038776;28;20040;-84
2023/10/14 10:30:14;;;;;;;9.23;2.47;;;14.80;70.60;;;;;;5024538;28;20048;-86
2023/10/14 10:32:46;;;;;;;10.18;1.80;;;14.80;67.50;;;;;;5024731;28;20045;-83
2023/10/14 10:35:14;;;;;;;10.65;2.28;;;14.90;66.20;;;;;;5024992;28;20041;-87
2023/10/14 10:37:48;;;;;;;11.45;2.00;;;15.00;66.60;;;;;;5015802;28;20113;-86
2023/10/14 10:40:22;;;;;;;9.05;2.13;;;15.20;65.90;;;;;;5017248;28;20033;-86
2023/10/14 10:42:54;;;;;;;9.13;2.50;;;15.30;64.30;;;;;;5008744;28;20485;-87
2023/10/14 10:45:22;;;;;;;10.68;2.78;;;15.40;65.00;;;;;;5020285;28;20034;-86
2023/10/14 10:47:57;;;;;;;8.45;2.10;;;15.50;66.50;;;;;;5008638;28;20041;-87
2023/10/14 10:50:40;;;;;;;7.25;2.40;;;15.50;65.40;;;;;;5004587;28;20037;-87
2023/10/14 10:53:08;;;;;;;7.60;1.70;;;15.50;65.20;;;;;;5000166;28;20128;-85
2023/10/14 10:55:42;;;;;;;5.80;1.95;;;15.30;65.70;;;;;;5000124;28;20038;-86
2023/10/14 10:58:12;;;;;;;8.10;2.80;;;15.00;68.50;;;;;;5015003;28;20570;-86
2023/10/14 11:00:41;;;;;;;7.13;2.38;;;14.60;69.70;;;;;;4998556;28;20283;-86
2023/10/14 11:03:07;;;;;;;20.85;4.65;;;14.00;71.30;;;;;;4999901;28;20087;-84
2023/10/14 11:05:33;;;;;;;5.22;1.60;;;13.60;72.90;;;;;;5015784;28;20490;-85
2023/10/14 11:08:03;;;;;;;6.68;1.35;;;13.30;73.20;;;;;;5025129;28;20037;-84
2023/10/14 11:10:33;;;;;;;6.95;1.27;;;13.20;73.70;;;;;;4999458;28;20132;-85
2023/10/14 11:13:00;;;;;;;9.43;1.80;;;13.20;72.90;;;;;;5030861;28;20053;-86
2023/10/14 11:15:31;;;;;;;9.73;2.85;;;13.20;73.10;;;;;;5001979;28;20052;-86
2023/10/14 11:17:58;;;;;;;15.48;2.75;;;13.20;72.50;;;;;;5017997;28;20049;-86
2023/10/14 11:20:33;;;;;;;11.43;2.08;;;13.10;72.80;;;;;;5034553;28;20535;-85
2023/10/14 11:23:08;;;;;;;16.88;2.42;;;13.00;73.20;;;;;;5034791;28;20033;-85
2023/10/14 11:25:42;;;;;;;10.90;2.38;;;13.00;73.80;;;;;;5020844;28;20047;-84
2023/10/14 11:28:14;;;;;;;9.80;2.30;;;13.20;72.10;;;;;;5031276;28;20040;-82
2023/10/14 11:30:47;;;;;;;12.60;2.58;;;13.40;71.30;;;;;;5038278;28;20315;-84
2023/10/14 11:33:17;;;;;;;10.77;2.37;;;13.40;71.70;;;;;;5021807;28;20052;-84
2023/10/14 11:35:43;;;;;;;12.27;3.00;;;13.40;68.50;;;;;;5022215;28;20041;-85
2023/10/14 11:38:13;;;;;;;13.15;2.83;;;13.40;68.30;;;;;;5005350;28;20052;-86
2023/10/14 11:40:45;;;;;;;9.25;2.90;;;13.40;68.30;;;;;;5006021;28;20131;-84
2023/10/14 11:43:11;;;;;;;8.77;2.58;;;13.40;69.20;;;;;;5022541;28;20067;-86
2023/10/14 11:45:44;;;;;;;10.45;2.30;;;13.40;69.30;;;;;;5006504;28;20041;-86
2023/10/14 11:48:24;;;;;;;9.68;2.70;;;13.50;69.00;;;;;;5009074;28;20496;-85
2023/10/14 11:50:58;;;;;;;14.13;3.08;;;13.70;68.20;;;;;;5043011;28;20128;-85
2023/10/14 11:53:33;;;;;;;14.30;3.33;;;13.90;68.00;;;;;;5027105;28;20056;-85
2023/10/14 11:56:01;;;;;;;12.43;2.45;;;14.10;67.00;;;;;;5025747;28;20078;-84
2023/10/14 11:58:36;;;;;;;13.85;2.38;;;14.50;65.80;;;;;;5023710;28;20041;-87
2023/10/14 12:01:04;;;;;;;10.80;2.35;;;14.60;63.40;;;;;;5037573;28;20041;-87
2023/10/14 12:03:29;;;;;;;9.32;2.20;;;14.80;62.20;;;;;;5004771;28;20075;-85
2023/10/14 12:05:59;;;;;;;9.52;2.05;;;14.90;62.10;;;;;;5004038;28;20064;-85
2023/10/14 12:08:26;;;;;;;8.98;2.00;;;15.00;61.00;;;;;;5019056;28;20107;-85
2023/10/14 12:10:53;;;;;;;14.55;4.30;;;15.10;59.50;;;;;;5024025;28;20456;-84
2023/10/14 12:13:19;;;;;;;6.93;2.13;;;15.20;59.80;;;;;;5020636;28;20444;-85
2023/10/14 12:15:46;;;;;;;11.63;2.67;;;15.30;60.70;;;;;;5020985;28;20160;-86
2023/10/14 12:18:13;;;;;;;7.20;2.00;;;15.50;60.40;;;;;;5004389;28;20086;-87
2023/10/14 12:20:41;;;;;;;7.32;1.75;;;15.30;59.60;;;;;;5037364;28;20463;-85
2023/10/14 12:23:06;;;;;;;14.43;2.80;;;15.10;60.90;;;;;;5003168;28;20266;-83
2023/10/14 12:25:32;;;;;;;12.43;3.50;;;15.10;61.70;;;;;;5004938;28;20045;-86
2023/10/14 12:27:58;;;;;;;11.48;2.40;;;15.20;63.20;;;;;;4984562;28;20045;-84
2023/10/14 12:30:42;;;;;;;7.60;2.60;;;15.30;59.50;;;;;;4984533;28;20042;-84
2023/10/14 12:33:18;;;;;;;9.35;2.67;;;15.40;59.70;;;;;;4987101;28;20502;-85
2023/10/14 12:35:45;;;;;;;8.45;2.58;;;15.50;56.20;;;;;;4993291;28;20532;-84
2023/10/14 12:38:16;;;;;;;7.30;2.00;;;15.50;55.90;;;;;;5024846;28;20401;-86
2023/10/14 12:40:45;;;;;;;5.78;1.80;;;15.50;54.70;;;;;;5012501;28;20033;-84
2023/10/14 12:43:12;;;;;;;8.25;2.25;;;15.50;52.50;;;;;;5029650;28;20033;-84
2023/10/14 12:45:49;;;;;;;11.77;1.90;;;15.60;54.50;;;;;;5010295;28;20033;-85
2023/10/14 12:48:15;;;;;;;6.63;1.45;;;15.70;51.90;;;;;;5011667;28;20393;-83
2023/10/14 12:50:41;;;;;;;8.80;2.22;;;15.70;53.20;;;;;;5017499;28;20090;-87
2023/10/14 12:53:08;;;;;;;6.72;2.40;;;15.80;53.90;;;;;;5003656;28;20506;-86
2023/10/14 12:55:36;;;;;;;8.13;2.85;;;15.90;54.30;;;;;;5036866;28;20127;-85
2023/10/14 12:58:02;;;;;;;6.35;1.63;;;16.00;54.70;;;;;;5004066;28;20040;-87
2023/10/14 13:00:31;;;;;;;6.57;2.03;;;15.90;53.60;;;;;;5036149;28;20032;-86
2023/10/14 13:02:57;;;;;;;6.43;1.90;;;15.80;55.30;;;;;;5020166;28;20162;-83
2023/10/14 13:05:27;;;;;;;6.50;2.53;;;15.60;53.90;;;;;;5019689;28;20036;-84
2023/10/14 13:07:54;;;;;;;8.38;2.08;;;15.40;55.20;;;;;;5017319;28;20041;-85
2023/10/14 13:10:25;;;;;;;9.45;1.80;;;15.50;53.90;;;;;;5018935;28;20503;-84
2023/10/14 13:12:58;;;;;;;9.00;2.38;;;15.40;54.00;;;;;;5003650;28;20521;-87
2023/10/14 13:15:29;;;;;;;9.43;2.25;;;15.30;54.30;;;;;;5020079;28;20431;-84
2023/10/14 13:18:02;;;;;;;10.43;2.58;;;15.10;55.70;;;;;;5014305;28;20464;-86
2023/10/14 13:20:29;;;;;;;8.23;1.90;;;15.20;56.60;;;;;;4989279;28;20544;-84
2023/10/14 13:23:09;;;;;;;10.98;1.90;;;15.40;55.30;;;;;;5018617;28;20401;-84
2023/10/14 13:25:36;;;;;;;9.82;2.80;;;15.50;56.50;;;;;;5033769;28;20405;-84
2023/10/14 13:28:08;;;;;;;6.70;2.20;;;15.80;55.50;;;;;;5003634;28;20080;-84
2023/10/14 13:30:38;;;;;;;7.35;1.67;;;16.00;56.70;;;;;;5022393;28;20044;-87